createdAt,value
2022-10-07T04:00:36.251Z,6.53
2022-10-07T04:04:51.432Z,4.73
2022-10-07T04:09:03.711Z,6.73
2022-10-07T04:13:15.210Z,7.27
2022-10-07T04:17:26.897Z,8.50
2022-10-07T04:21:38.396Z,9.20
2022-10-07T04:25:49.929Z,6.80
2022-10-07T04:30:04.823Z,10.07
2022-10-07T04:34:16.775Z,10.03
2022-10-07T04:38:28.734Z,8.97
2022-10-07T04:43:01.709Z,5.80
2022-10-07T04:47:13.306Z,11.13
2022-10-07T04:51:24.938Z,18.77
2022-10-07T04:55:51.714Z,11.83
2022-10-07T05:00:06.730Z,7.20
2022-10-07T05:04:19.742Z,7.33
2022-10-07T05:08:32.070Z,7.57
2022-10-07T05:12:45.411Z,11.97
2022-10-07T05:16:57.622Z,9.20
2022-10-07T05:21:13.126Z,10.33
2022-10-07T05:25:29.071Z,10.50
2022-10-07T05:29:40.729Z,8.07
2022-10-07T05:33:52.422Z,8.87
2022-10-07T05:38:08.916Z,8.50
2022-10-07T05:42:20.679Z,7.97
2022-10-07T05:46:42.070Z,11.07
2022-10-07T05:50:53.950Z,13.50
2022-10-07T05:55:06.370Z,9.90
2022-10-07T05:59:17.903Z,9.23
2022-10-07T06:03:30.458Z,10.30
2022-10-07T06:07:43.160Z,20.33
2022-10-07T06:12:13.622Z,13.77
2022-10-07T06:16:26.075Z,9.23
2022-10-07T06:20:37.783Z,10.33
2022-10-07T06:24:51.947Z,11.67
2022-10-07T06:29:04.558Z,6.37
2022-10-07T06:33:20.230Z,6.90
2022-10-07T06:37:32.796Z,6.83
2022-10-07T06:41:45.027Z,8.90
2022-10-07T06:46:18.723Z,6.40
2022-10-07T06:50:32.722Z,6.47
2022-10-07T06:54:45.070Z,7.57
2022-10-07T06:58:58.443Z,7.53
2022-10-07T07:03:18.680Z,8.03
2022-10-07T07:07:31.033Z,7.73
2022-10-07T07:11:45.053Z,6.73
2022-10-07T07:16:01.572Z,5.97
2022-10-07T07:20:17.797Z,8.23
2022-10-07T07:24:29.422Z,10.27
2022-10-07T07:28:43.416Z,7.68
2022-10-07T07:32:55.801Z,9.23
2022-10-07T07:37:07.407Z,6.38
2022-10-07T07:41:28.161Z,6.30
2022-10-07T07:45:40.215Z,4.88
2022-10-07T07:49:52.262Z,7.00
2022-10-07T07:54:11.402Z,6.13
2022-10-07T07:58:24.850Z,7.50
2022-10-07T08:02:37.430Z,10.87
2022-10-07T08:06:49.854Z,8.67
2022-10-07T08:11:15.706Z,4.87
2022-10-07T08:15:28.811Z,5.50
2022-10-07T08:19:40.929Z,5.33
2022-10-07T08:23:58.203Z,5.70
2022-10-07T08:28:25.355Z,7.97
2022-10-07T08:32:39.012Z,4.35
2022-10-07T08:36:51.796Z,4.72
2022-10-07T08:41:09.635Z,5.13
2022-10-07T08:45:29.336Z,5.80
2022-10-07T08:50:04.255Z,5.50
2022-10-07T08:54:19.807Z,6.65
2022-10-07T08:58:51.774Z,8.00
2022-10-07T09:03:09.418Z,6.15
2022-10-07T09:07:32.366Z,5.32
2022-10-07T09:11:46.837Z,5.65
2022-10-07T09:16:14.768Z,5.47
2022-10-07T09:20:36.654Z,7.78
2022-10-07T09:24:49.859Z,9.02
2022-10-07T09:29:01.355Z,5.40
2022-10-07T09:33:20.522Z,3.78
2022-10-07T09:37:32.636Z,7.25
2022-10-07T09:41:44.142Z,6.25
2022-10-07T09:45:56.700Z,6.30
2022-10-07T09:50:38.539Z,8.52
2022-10-07T09:54:52.542Z,5.15
2022-10-07T09:59:23.682Z,3.88
2022-10-07T10:03:37.405Z,4.38
2022-10-07T10:07:54.063Z,4.60
2022-10-07T10:12:15.557Z,4.10
2022-10-07T10:16:36.740Z,3.53
2022-10-07T10:20:48.264Z,3.25
2022-10-07T10:25:18.479Z,4.18
2022-10-07T10:29:44.669Z,4.38
2022-10-07T10:34:16.136Z,5.40
2022-10-07T10:38:47.050Z,5.38
2022-10-07T10:43:22.511Z,6.70
2022-10-07T10:48:07.374Z,3.00
2022-10-07T10:52:36.189Z,4.47
2022-10-07T10:56:58.199Z,3.15
2022-10-07T11:01:16.671Z,2.70
2022-10-07T11:05:35.396Z,4.88
2022-10-07T11:09:56.474Z,3.53
2022-10-07T11:14:17.654Z,3.17
2022-10-07T11:18:36.164Z,4.20
2022-10-07T11:22:56.630Z,3.58
2022-10-07T11:27:16.423Z,2.70
2022-10-07T11:31:35.656Z,1.55
2022-10-07T11:35:56.531Z,4.05
2022-10-07T11:40:08.645Z,2.15
2022-10-07T11:44:28.118Z,3.67
2022-10-07T11:48:46.276Z,3.92
2022-10-07T11:53:06.860Z,4.15
2022-10-07T11:57:25.732Z,1.45
2022-10-07T12:01:47.656Z,4.10
2022-10-07T12:06:10.167Z,3.42
2022-10-07T12:10:27.209Z,2.85
2022-10-07T12:14:43.889Z,3.33
2022-10-07T12:19:07.571Z,3.67
2022-10-07T12:23:19.696Z,2.42
2022-10-07T12:27:34.774Z,4.93
2022-10-07T12:31:47.046Z,3.33
2022-10-07T12:35:58.679Z,3.55
2022-10-07T12:40:31.503Z,3.25
2022-10-07T12:44:52.514Z,4.38
2022-10-07T12:49:32.090Z,4.63
2022-10-07T12:53:47.407Z,5.72
2022-10-07T12:58:19.835Z,3.80
2022-10-07T13:03:08.762Z,7.78
2022-10-07T13:07:48.977Z,2.85
2022-10-07T13:12:00.423Z,4.80
2022-10-07T13:16:20.857Z,3.95
2022-10-07T13:20:41.819Z,5.70
2022-10-07T13:24:58.220Z,2.92
2022-10-07T13:29:25.880Z,4.60
2022-10-07T13:33:37.461Z,3.75
2022-10-07T13:37:48.993Z,3.15
2022-10-07T13:42:01.198Z,2.58
2022-10-07T13:46:14.449Z,4.45
2022-10-07T13:50:29.115Z,2.90
2022-10-07T13:54:40.596Z,3.97
2022-10-07T13:58:56.503Z,4.70
2022-10-07T14:03:18.447Z,4.15
2022-10-07T14:07:30.109Z,3.80
2022-10-07T14:11:42.387Z,2.30
2022-10-07T14:15:56.290Z,3.33
2022-10-07T14:20:32.497Z,2.85
2022-10-07T14:24:53.250Z,2.63
2022-10-07T14:29:27.351Z,2.15
2022-10-07T14:34:08.120Z,3.40
2022-10-07T14:38:29.329Z,3.42
2022-10-07T14:42:40.851Z,3.33
2022-10-07T14:47:07.034Z,6.40
2022-10-07T14:51:21.598Z,4.53
2022-10-07T14:55:33.359Z,4.03
2022-10-07T14:59:47.151Z,6.80
2022-10-07T15:03:58.842Z,3.08
2022-10-07T15:08:14.525Z,2.38
2022-10-07T15:12:27.827Z,4.43
2022-10-07T15:16:39.464Z,4.47
2022-10-07T15:20:57.715Z,6.45
2022-10-07T15:25:10.949Z,3.10
2022-10-07T15:29:22.492Z,4.03
2022-10-07T15:33:37.810Z,5.78
2022-10-07T15:37:49.406Z,4.50
2022-10-07T15:42:01.025Z,4.60
2022-10-07T15:46:13.054Z,4.60
2022-10-07T15:50:24.902Z,5.97
2022-10-07T15:54:36.807Z,4.70
2022-10-07T15:58:48.424Z,5.32
2022-10-07T16:03:03.204Z,4.70
2022-10-07T16:07:15.855Z,5.72
2022-10-07T16:11:28.771Z,5.00
2022-10-07T16:15:40.351Z,4.88
2022-10-07T16:19:51.935Z,6.50
2022-10-07T16:24:06.074Z,5.15
2022-10-07T16:28:36.264Z,4.50
2022-10-07T16:32:49.422Z,7.38
2022-10-07T16:37:00.986Z,12.95
2022-10-07T16:41:13.073Z,11.20
2022-10-07T16:45:24.610Z,6.82
2022-10-07T16:49:36.836Z,7.60
2022-10-07T16:53:50.302Z,7.82
2022-10-07T16:58:01.808Z,9.52
2022-10-07T17:02:13.288Z,9.15
2022-10-07T17:06:26.068Z,9.98
2022-10-07T17:10:40.483Z,14.77
2022-10-07T17:14:52.058Z,9.57
2022-10-07T17:19:05.808Z,7.28
2022-10-07T17:23:17.863Z,6.30
2022-10-07T17:27:29.486Z,6.97
2022-10-07T17:31:43.409Z,8.88
2022-10-07T17:36:01.158Z,7.60
2022-10-07T17:40:12.668Z,4.85
2022-10-07T17:44:24.225Z,6.68
2022-10-07T17:48:40.247Z,9.70
2022-10-07T17:52:51.813Z,9.02
2022-10-07T17:57:04.330Z,11.60
2022-10-07T18:01:23.867Z,8.13
2022-10-07T18:05:35.599Z,6.28
2022-10-07T18:09:47.131Z,9.13
2022-10-07T18:14:17.262Z,6.25
2022-10-07T18:18:31.886Z,8.73
2022-10-07T18:22:44.214Z,6.53
2022-10-07T18:26:59.184Z,8.05
2022-10-07T18:31:13.302Z,6.25
2022-10-07T18:35:24.987Z,11.23
2022-10-07T18:39:36.665Z,11.05
2022-10-07T18:43:48.473Z,10.65
2022-10-07T18:48:00.245Z,9.55
2022-10-07T18:52:11.965Z,10.32
2022-10-07T18:56:24.305Z,11.57
2022-10-07T19:00:41.661Z,10.98
2022-10-07T19:04:53.463Z,12.45
2022-10-07T19:09:11.391Z,12.95
2022-10-07T19:13:41.579Z,14.75
2022-10-07T19:17:53.101Z,9.70
2022-10-07T19:22:04.719Z,13.50
2022-10-07T19:26:21.377Z,16.30
2022-10-07T19:30:33.270Z,20.05
2022-10-07T19:34:44.944Z,23.33
2022-10-07T19:38:58.538Z,17.83
2022-10-07T19:43:11.261Z,20.70
2022-10-07T19:47:22.821Z,15.57
2022-10-07T19:51:35.069Z,14.52
2022-10-07T19:55:46.821Z,17.00
2022-10-07T19:59:58.392Z,14.52
2022-10-07T20:04:11.200Z,7.68
2022-10-07T20:08:25.442Z,6.93
2022-10-07T20:12:40.489Z,7.47
2022-10-07T20:16:55.489Z,9.95
2022-10-07T20:21:11.800Z,6.90
2022-10-07T20:25:25.545Z,10.63
2022-10-07T20:29:57.063Z,9.15
2022-10-07T20:34:13.113Z,10.82
2022-10-07T20:38:24.732Z,6.03
2022-10-07T20:42:36.298Z,10.27
2022-10-07T20:46:51.730Z,9.45
2022-10-07T20:51:08.393Z,6.40
2022-10-07T20:55:20.216Z,6.07
2022-10-07T20:59:32.239Z,6.15
2022-10-07T21:03:43.918Z,7.25
2022-10-07T21:07:55.563Z,9.10
2022-10-07T21:12:10.026Z,5.57
2022-10-07T21:16:26.469Z,6.32
2022-10-07T21:20:38.070Z,6.68
2022-10-07T21:24:49.935Z,7.22
2022-10-07T21:29:01.783Z,4.93
